createdAt,value
2018-03-08T00:00:30.660Z,10.81
2018-03-08T00:05:27.873Z,10.39
2018-03-08T00:10:29.281Z,10.36
2018-03-08T00:15:26.625Z,10.08
2018-03-08T00:20:23.900Z,9.11
2018-03-08T00:25:21.884Z,8.99
2018-03-08T00:30:22.791Z,10.03
2018-03-08T00:35:19.946Z,10.40
2018-03-08T00:40:17.451Z,9.73
2018-03-08T00:45:14.722Z,9.89
2018-03-08T00:50:15.902Z,9.53
2018-03-08T00:55:13.225Z,8.93
2018-03-08T01:00:13.821Z,9.02
2018-03-08T01:05:10.993Z,8.68
2018-03-08T01:10:09.994Z,8.59
2018-03-08T01:15:07.865Z,8.40
2018-03-08T01:20:11.909Z,8.06
2018-03-08T01:25:09.141Z,7.93
2018-03-08T01:30:07.437Z,7.76
2018-03-08T01:35:04.642Z,7.78
2018-03-08T01:40:02.025Z,8.02
2018-03-08T01:44:59.222Z,7.41
2018-03-08T01:50:01.838Z,7.20
2018-03-08T01:54:59.140Z,7.04
2018-03-08T02:00:00.108Z,6.62
2018-03-08T02:04:57.830Z,6.85
2018-03-08T02:09:55.294Z,6.51
2018-03-08T02:14:52.965Z,6.73
2018-03-08T02:19:53.529Z,6.99
2018-03-08T02:24:50.734Z,7.27
2018-03-08T02:29:52.784Z,7.28
2018-03-08T02:34:49.914Z,7.37
2018-03-08T02:39:51.836Z,6.94
2018-03-08T02:44:49.145Z,7.15
2018-03-08T02:49:47.674Z,7.37
2018-03-08T02:54:44.896Z,7.40
2018-03-08T02:59:45.413Z,7.77
2018-03-08T03:04:42.730Z,7.63
2018-03-08T03:09:43.352Z,7.54
2018-03-08T03:14:40.518Z,7.20
2018-03-08T03:19:37.872Z,6.77
2018-03-08T03:24:35.865Z,6.53
2018-03-08T03:29:34.402Z,6.61
2018-03-08T03:34:31.673Z,6.83
2018-03-08T03:39:32.795Z,6.81
2018-03-08T03:44:30.122Z,6.60
2018-03-08T03:49:28.518Z,6.17
2018-03-08T03:54:25.781Z,6.25
2018-03-08T03:59:26.029Z,6.52
2018-03-08T04:04:23.769Z,6.75
2018-03-08T04:09:22.072Z,6.62
2018-03-08T04:14:19.348Z,6.83
2018-03-08T04:19:17.870Z,7.04
2018-03-08T04:24:15.073Z,7.05
2018-03-08T04:29:13.441Z,7.17
2018-03-08T04:34:10.762Z,7.38
2018-03-08T04:39:09.714Z,7.32
2018-03-08T04:44:07.037Z,7.56
2018-03-08T04:49:05.381Z,8.67
2018-03-08T04:54:02.606Z,7.95
2018-03-08T04:59:00.937Z,7.40
2018-03-08T05:03:58.271Z,7.34
2018-03-08T05:08:56.638Z,7.63
2018-03-08T05:13:53.923Z,8.09
2018-03-08T05:18:52.278Z,8.00
2018-03-08T05:23:49.645Z,7.46
2018-03-08T05:28:47.793Z,7.81
2018-03-08T05:33:45.950Z,8.49
2018-03-08T05:38:44.322Z,8.61
2018-03-08T05:43:41.698Z,8.75
2018-03-08T05:48:42.233Z,9.20
2018-03-08T05:53:39.328Z,9.58
2018-03-08T05:58:37.725Z,9.76
2018-03-08T06:03:35.530Z,10.11
2018-03-08T06:08:33.689Z,10.34
2018-03-08T06:13:30.891Z,10.01
2018-03-08T06:18:29.222Z,9.83
2018-03-08T06:23:26.540Z,10.07
2018-03-08T06:28:25.526Z,11.38
2018-03-08T06:33:22.835Z,12.04
2018-03-08T06:38:21.172Z,12.60
2018-03-08T06:43:18.486Z,12.36
2018-03-08T06:48:16.933Z,12.94
2018-03-08T06:53:14.305Z,14.04
2018-03-08T06:58:14.550Z,13.95
2018-03-08T07:03:12.190Z,14.01
2018-03-08T07:08:15.522Z,14.02
2018-03-08T07:13:12.744Z,14.25
2018-03-08T07:18:15.741Z,13.04
2018-03-08T07:23:13.006Z,12.88
2018-03-08T07:28:11.251Z,13.30
2018-03-08T07:33:08.426Z,14.40
2018-03-08T07:38:06.706Z,14.06
2018-03-08T07:43:04.029Z,14.08
2018-03-08T07:48:04.834Z,13.87
2018-03-08T07:53:02.378Z,14.35
2018-03-08T07:57:59.856Z,15.29
2018-03-08T08:02:57.273Z,15.13
2018-03-08T08:08:13.767Z,16.25
2018-03-08T08:13:10.973Z,16.61
2018-03-08T08:18:13.973Z,16.46
2018-03-08T08:23:11.253Z,17.14
2018-03-08T08:28:15.461Z,17.52
2018-03-08T08:33:12.723Z,18.27
2018-03-08T08:38:11.817Z,17.86
2018-03-08T08:43:09.073Z,17.57
2018-03-08T08:48:14.166Z,17.46
2018-03-08T08:53:11.475Z,18.26
2018-03-08T08:58:15.502Z,17.81
2018-03-08T09:03:12.788Z,19.43
2018-03-08T09:08:13.666Z,17.70
2018-03-08T09:13:10.971Z,18.64
2018-03-08T09:18:09.285Z,18.53
2018-03-08T09:23:06.629Z,19.01
2018-03-08T09:28:03.977Z,18.87
2018-03-08T09:33:01.366Z,19.38
2018-03-08T09:37:58.586Z,19.89
2018-03-08T09:42:56.669Z,19.57
2018-03-08T09:47:55.125Z,20.17
2018-03-08T09:52:52.521Z,19.09
2018-03-08T09:57:50.877Z,18.63
2018-03-08T10:02:48.202Z,18.02
2018-03-08T10:07:49.355Z,17.46
2018-03-08T10:12:46.545Z,20.26
2018-03-08T10:17:47.677Z,19.44
2018-03-08T10:22:45.483Z,21.12
2018-03-08T10:27:43.818Z,19.55
2018-03-08T10:32:41.626Z,19.08
2018-03-08T10:37:49.526Z,18.21
2018-03-08T10:42:46.788Z,19.14
2018-03-08T10:47:45.907Z,20.62
2018-03-08T10:52:43.150Z,18.54
2018-03-08T10:57:41.562Z,19.50
2018-03-08T11:02:44.784Z,20.06
2018-03-08T11:07:45.110Z,19.39
2018-03-08T11:12:42.623Z,19.90
2018-03-08T11:17:46.954Z,20.07
2018-03-08T11:22:44.034Z,21.15
2018-03-08T11:27:44.913Z,19.43
2018-03-08T11:32:42.236Z,18.76
2018-03-08T11:37:52.486Z,17.72
2018-03-08T11:42:49.716Z,18.07
2018-03-08T11:47:51.886Z,18.50
2018-03-08T11:52:49.121Z,17.96
2018-03-08T11:57:47.605Z,18.60
2018-03-08T12:02:44.842Z,17.59
2018-03-08T12:07:42.340Z,16.64
2018-03-08T12:12:39.623Z,16.54
2018-03-08T12:17:36.926Z,15.66
2018-03-08T12:22:34.195Z,15.20
2018-03-08T12:27:34.510Z,15.19
2018-03-08T12:32:31.617Z,14.86
2018-03-08T12:37:29.939Z,14.77
2018-03-08T12:42:27.316Z,14.89
2018-03-08T12:47:27.638Z,14.78
2018-03-08T12:52:25.729Z,14.12
2018-03-08T12:57:26.822Z,13.83
2018-03-08T13:02:24.882Z,13.85
2018-03-08T13:07:22.189Z,13.82
2018-03-08T13:12:19.521Z,13.80
2018-03-08T13:17:19.736Z,13.84
2018-03-08T13:22:16.997Z,13.80
2018-03-08T13:27:15.482Z,13.57
2018-03-08T13:32:12.661Z,13.65
2018-03-08T13:37:12.966Z,13.61
2018-03-08T13:42:10.054Z,13.31
2018-03-08T13:47:10.378Z,13.00
2018-03-08T13:52:07.537Z,13.18
2018-03-08T13:57:10.397Z,12.87
2018-03-08T14:02:07.544Z,12.94
2018-03-08T14:07:05.802Z,12.84
2018-03-08T14:12:03.022Z,12.76
2018-03-08T14:17:01.596Z,12.59
2018-03-08T14:21:58.975Z,12.42
2018-03-08T14:26:56.402Z,12.40
2018-03-08T14:31:53.602Z,12.39
2018-03-08T14:36:54.918Z,12.38
2018-03-08T14:41:52.235Z,12.14
2018-03-08T14:46:52.630Z,12.07
2018-03-08T14:51:49.981Z,12.00
2018-03-08T14:56:47.426Z,11.94
2018-03-08T15:01:44.640Z,11.66
2018-03-08T15:06:42.095Z,11.68
2018-03-08T15:11:39.280Z,11.51
2018-03-08T15:16:37.618Z,11.40
2018-03-08T15:21:35.345Z,11.42
2018-03-08T15:26:33.577Z,11.28
2018-03-08T15:31:30.918Z,11.22
2018-03-08T15:36:34.307Z,11.27
2018-03-08T15:41:32.229Z,11.04
2018-03-08T15:46:29.550Z,11.04
2018-03-08T15:51:26.786Z,10.96
2018-03-08T15:56:28.942Z,11.00
2018-03-08T16:01:26.177Z,10.86
2018-03-08T16:06:45.100Z,10.74
2018-03-08T16:11:42.427Z,10.77
2018-03-08T16:16:47.216Z,10.71
2018-03-08T16:21:44.559Z,10.57
2018-03-08T16:26:45.383Z,10.56
2018-03-08T16:31:43.672Z,10.46
2018-03-08T16:36:45.481Z,10.27
2018-03-08T16:41:43.148Z,10.23
2018-03-08T16:46:40.474Z,10.12
2018-03-08T16:51:37.690Z,10.14
2018-03-08T16:56:34.885Z,9.96
2018-03-08T17:01:32.064Z,9.94
2018-03-08T17:06:32.926Z,9.84
2018-03-08T17:11:30.218Z,9.78
2018-03-08T17:16:29.711Z,9.80
2018-03-08T17:21:26.972Z,9.65
2018-03-08T17:26:29.486Z,9.60
2018-03-08T17:31:26.894Z,9.53
2018-03-08T17:36:27.754Z,9.49
2018-03-08T17:41:24.982Z,9.40
2018-03-08T17:46:23.191Z,9.45
2018-03-08T17:51:20.532Z,9.46
2018-03-08T17:56:18.951Z,9.43
2018-03-08T18:01:16.404Z,9.48
2018-03-08T18:06:19.599Z,9.48
2018-03-08T18:11:17.072Z,9.42
2018-03-08T18:16:15.450Z,9.46
2018-03-08T18:21:12.791Z,9.23
2018-03-08T18:26:13.678Z,9.23
2018-03-08T18:31:11.028Z,9.19
2018-03-08T18:36:11.838Z,9.15
2018-03-08T18:41:09.009Z,9.23
2018-03-08T18:46:07.215Z,9.12
2018-03-08T18:51:04.533Z,9.13
2018-03-08T18:56:05.809Z,8.82
2018-03-08T19:01:03.890Z,9.12
2018-03-08T19:06:06.062Z,8.72
2018-03-08T19:11:03.316Z,8.41
2018-03-08T19:16:01.364Z,8.40
2018-03-08T19:20:59.402Z,8.59
2018-03-08T19:26:01.621Z,8.85
2018-03-08T19:30:58.850Z,8.75
2018-03-08T19:35:56.061Z,8.96
2018-03-08T19:40:53.310Z,8.36
2018-03-08T19:45:50.570Z,8.00
2018-03-08T19:50:47.755Z,7.46
2018-03-08T19:55:45.192Z,7.19
2018-03-08T20:00:42.538Z,7.58
2018-03-08T20:05:42.870Z,7.20
2018-03-08T20:10:40.012Z,7.43
2018-03-08T20:15:43.132Z,6.97
2018-03-08T20:20:40.436Z,6.84
2018-03-08T20:25:38.732Z,7.10
2018-03-08T20:30:36.746Z,7.44
2018-03-08T20:35:35.055Z,6.93
2018-03-08T20:40:32.193Z,6.76
2018-03-08T20:45:35.628Z,7.00
2018-03-08T20:50:32.754Z,6.92
2018-03-08T20:55:34.707Z,7.18
2018-03-08T21:00:32.021Z,7.03
2018-03-08T21:05:30.370Z,7.03
2018-03-08T21:10:27.667Z,7.00
2018-03-08T21:15:29.697Z,6.93
2018-03-08T21:20:26.970Z,7.12
2018-03-08T21:25:25.396Z,7.26
2018-03-08T21:30:22.582Z,6.82
2018-03-08T21:35:21.078Z,6.81
2018-03-08T21:40:18.347Z,6.93
2018-03-08T21:45:19.095Z,7.22
2018-03-08T21:50:16.849Z,7.22
2018-03-08T21:55:19.484Z,7.31
2018-03-08T22:00:16.638Z,7.18
2018-03-08T22:05:14.966Z,7.09
2018-03-08T22:10:12.137Z,7.02
2018-03-08T22:15:12.494Z,7.13
2018-03-08T22:20:09.773Z,7.42
2018-03-08T22:25:08.191Z,7.34
2018-03-08T22:30:05.613Z,7.30
2018-03-08T22:35:04.514Z,7.04
2018-03-08T22:40:02.022Z,6.98
2018-03-08T22:45:00.953Z,6.97
2018-03-08T22:49:58.762Z,7.00
2018-03-08T22:54:59.733Z,7.04
2018-03-08T22:59:57.277Z,7.03
2018-03-08T23:05:02.477Z,7.14
2018-03-08T23:09:59.986Z,7.16
2018-03-08T23:15:00.546Z,7.11
2018-03-08T23:19:58.170Z,7.10
2018-03-08T23:24:57.149Z,6.95
2018-03-08T23:29:54.965Z,6.63
2018-03-08T23:34:58.832Z,7.16
2018-03-08T23:39:56.342Z,6.51
2018-03-08T23:44:54.737Z,6.88
2018-03-08T23:49:52.273Z,6.86
2018-03-08T23:54:54.944Z,7.10
2018-03-08T23:59:52.515Z,6.42
